Time;durP1;ratioP1;P1;durP2;ratioP2;P2;SDS_P1;SDS_P2;PMS_P1;PMS_P2;Temp;Humidity;BMP_temperature;BMP_pressure;BME280_temperature;BME280_humidity;BME280_pressure;Samples;Min_cycle;Max_cycle;Signal;HPM_P1;HPM_P2
2023/09/24 00:01:42;;;;;;;9.50;8.50;;;;;;;19.50;83.15;100576.95;88789;279;136702;-80
2023/09/24 00:03:46;;;;;;;8.50;7.10;;;;;;;19.44;83.25;100574.58;88832;277;22518;-73
2023/09/24 00:05:48;;;;;;;;;;;;;;;19.41;83.61;100576.01;89108;280;137013;-77
2023/09/24 00:07:50;;;;;;;8.70;7.30;;;;;;;19.32;83.47;100567.80;89445;277;22534;-77
2023/09/24 00:09:52;;;;;;;9.10;7.90;;;;;;;19.38;83.81;100578.20;89048;277;137334;-78
2023/09/24 00:11:54;;;;;;;8.80;7.90;;;;;;;19.31;83.78;100569.20;89179;280;24143;-80
2023/09/24 00:13:55;;;;;;;15.30;8.10;;;;;;;19.38;83.86;100581.80;88958;281;137988;-77
2023/09/24 00:16:06;;;;;;;9.30;8.30;;;;;;;19.38;83.93;100579.86;88924;273;22542;-77
2023/09/24 00:18:09;;;;;;;9.40;6.70;;;;;;;19.37;83.80;100584.45;88945;279;25141;-80
2023/09/24 00:20:13;;;;;;;10.30;7.60;;;;;;;19.37;83.77;100586.44;88822;279;136926;-73
2023/09/24 00:22:15;;;;;;;10.40;7.40;;;;;;;19.37;83.77;100587.41;88673;273;22530;-79
2023/09/24 00:24:18;;;;;;;11.80;7.90;;;;;;;19.35;83.93;100589.42;88907;273;136676;-76
2023/09/24 00:26:19;;;;;;;11.10;7.60;;;;;;;19.31;83.86;100588.80;88814;273;22534;-82
2023/09/24 00:28:23;;;;;;;12.20;8.10;;;;;;;19.29;83.99;100585.67;88849;280;137722;-75
2023/09/24 00:30:25;;;;;;;10.40;7.30;;;;;;;19.25;84.42;100588.91;88831;277;25085;-78
2023/09/24 00:32:27;;;;;;;14.80;8.20;;;;;;;19.20;84.41;100592.29;88764;280;138377;-78
2023/09/24 00:34:28;;;;;;;9.00;8.10;;;;;;;19.18;84.58;100592.29;88862;273;23974;-76
2023/09/24 00:36:35;;;;;;;8.30;7.40;;;;;;;19.18;84.65;100593.53;88671;280;138417;-78
2023/09/24 00:38:38;;;;;;;14.50;9.00;;;;;;;19.15;84.99;100591.58;88703;273;25217;-80
2023/09/24 00:40:40;;;;;;;10.10;7.80;;;;;;;19.04;85.22;100583.73;88524;276;136834;-81
2023/09/24 00:42:41;;;;;;;8.20;7.40;;;;;;;19.07;85.66;100594.92;88553;282;22676;-79
2023/09/24 00:44:43;;;;;;;11.60;7.60;;;;;;;19.03;85.78;100595.84;88553;275;136611;-78
2023/09/24 00:46:46;;;;;;;8.00;7.30;;;;;;;19.02;85.98;100595.30;88814;274;24058;-80
2023/09/24 00:48:50;;;;;;;13.00;8.20;;;;;;;19.00;86.01;100595.80;88544;273;137003;-79
2023/09/24 00:50:53;;;;;;;9.00;8.10;;;;;;;19.00;85.92;100593.36;88588;280;23232;-75
2023/09/24 00:52:55;;;;;;;8.20;7.40;;;;;;;18.98;86.22;100591.48;88427;279;137323;-76
2023/09/24 00:56:41;;;;;;;10.80;8.30;;;;;;;18.88;86.92;100588.86;87082;304;605501;-75
2023/09/24 00:58:46;;;;;;;8.20;7.50;;;;;;;18.86;87.03;100588.86;88097;290;22543;-76
2023/09/24 01:00:48;;;;;;;;;;;;;;;18.83;87.32;100588.31;88052;294;135317;-77
2023/09/24 01:02:50;;;;;;;10.60;8.10;;;;;;;18.82;87.17;100596.34;87957;287;22572;-76
2023/09/24 01:04:53;;;;;;;9.30;8.30;;;;;;;18.82;86.98;100594.56;88325;294;137791;-76
2023/09/24 01:06:57;;;;;;;12.00;8.40;;;;;;;18.84;86.67;100590.88;88793;280;22545;-79
2023/09/24 01:09:00;;;;;;;10.50;7.90;;;;;;;18.90;86.43;100594.01;88648;282;137470;-79
2023/09/24 01:11:02;;;;;;;9.60;7.50;;;;;;;18.87;86.52;100595.69;88366;280;583357;-77
2023/09/24 01:13:04;;;;;;;9.10;8.30;;;;;;;18.90;86.48;100595.59;88755;279;138591;-76
2023/09/24 01:15:13;;;;;;;14.30;9.10;;;;;;;18.91;86.25;100599.93;88927;272;22611;-79
2023/09/24 01:17:17;;;;;;;12.90;8.90;;;;;;;18.90;86.47;100599.75;88724;279;136394;-78
2023/09/24 01:19:23;;;;;;;13.70;8.70;;;;;;;18.89;86.37;100601.13;88794;279;25103;-77
2023/09/24 01:21:27;;;;;;;12.60;7.90;;;;;;;18.75;86.41;100576.40;88555;277;138378;-76
2023/09/24 01:23:37;;;;;;;12.30;8.80;;;;;;;18.84;86.50;100586.48;88884;280;22532;-76
2023/09/24 01:25:40;;;;;;;10.20;8.30;;;;;;;18.91;86.52;100599.27;88736;279;136869;-77
2023/09/24 01:27:42;;;;;;;12.70;8.40;;;;;;;18.88;86.72;100600.09;88790;276;25076;-79
2023/09/24 01:29:44;;;;;;;9.60;8.10;;;;;;;18.90;86.60;100601.41;88687;279;137006;-77
2023/09/24 01:31:47;;;;;;;10.30;8.70;;;;;;;18.89;86.67;100599.89;88545;280;24173;-79
2023/09/24 01:33:49;;;;;;;13.30;8.40;;;;;;;18.86;86.63;100602.02;88827;272;135798;-77
2023/09/24 01:35:52;;;;;;;9.70;8.80;;;;;;;18.83;86.92;100602.02;88864;280;25124;-77
2023/09/24 01:37:59;;;;;;;11.10;7.90;;;;;;;18.80;87.11;100598.99;88819;279;135669;-78
2023/09/24 01:40:18;;;;;;;11.60;8.90;;;;;;;18.77;87.50;100598.13;88997;279;22630;-74
2023/09/24 01:42:20;;;;;;;10.80;9.10;;;;;;;18.74;87.51;100596.95;88819;272;25232;-76
2023/09/24 01:44:24;;;;;;;8.90;8.10;;;;;;;18.73;87.47;100595.84;88534;272;138223;-78
2023/09/24 01:46:26;;;;;;;9.40;8.00;;;;;;;18.74;87.54;100595.38;88658;272;25080;-78
2023/09/24 01:48:28;;;;;;;11.00;7.80;;;;;;;18.74;87.65;100595.69;88847;272;137679;-75
2023/09/24 01:50:36;;;;;;;10.40;8.70;;;;;;;18.73;87.73;100593.01;89469;272;22556;-75
2023/09/24 01:52:38;;;;;;;9.90;9.00;;;;;;;18.72;87.80;100591.36;88860;271;136793;-74
2023/09/24 01:54:40;;;;;;;13.60;8.30;;;;;;;18.69;88.04;100586.30;88689;272;24952;-68
2023/09/24 01:56:42;;;;;;;9.40;8.60;;;;;;;18.68;88.22;100585.23;88533;272;136822;-78
2023/09/24 01:58:45;;;;;;;11.40;8.00;;;;;;;18.67;88.40;100595.23;88883;281;25200;-77
2023/09/24 02:00:48;;;;;;;10.10;8.30;;;;;;;18.63;88.74;100597.46;88593;272;138141;-73
2023/09/24 02:02:50;;;;;;;10.50;7.60;;;;;;;18.60;88.77;100600.52;88656;280;25196;-73
2023/09/24 02:04:54;;;;;;;8.00;7.20;;;;;;;18.59;88.93;100601.05;88533;277;136764;-76
2023/09/24 02:06:56;;;;;;;9.60;8.60;;;;;;;18.57;89.10;100603.09;88577;280;22457;-76
2023/09/24 02:08:58;;;;;;;9.20;7.50;;;;;;;18.57;89.22;100606.59;88326;280;137091;-76
2023/09/24 02:11:01;;;;;;;10.60;8.10;;;;;;;18.57;89.23;100606.10;88718;271;24084;-77
2023/09/24 02:13:03;;;;;;;9.20;8.30;;;;;;;18.55;89.28;100607.73;88824;279;136825;-79
2023/09/24 02:15:10;;;;;;;8.80;7.60;;;;;;;18.56;89.17;100604.58;88787;277;22708;-73
2023/09/24 02:17:12;;;;;;;10.00;8.00;;;;;;;18.55;89.15;100607.20;88709;280;135444;-77
2023/09/24 02:19:14;;;;;;;9.30;8.30;;;;;;;18.52;89.44;100605.63;88692;272;25743;-81
2023/09/24 02:21:18;;;;;;;9.20;8.30;;;;;;;18.48;89.78;100607.64;88707;278;137198;-77
2023/09/24 02:23:22;;;;;;;10.90;9.00;;;;;;;18.44;90.12;100610.63;88630;281;24017;-75
2023/09/24 02:25:37;;;;;;;11.60;9.10;;;;;;;18.41;90.31;100612.01;88635;276;137858;-77
2023/09/24 02:27:42;;;;;;;12.40;8.30;;;;;;;18.38;90.52;100615.12;88702;279;25118;-77
2023/09/24 02:29:47;;;;;;;11.40;8.70;;;;;;;18.36;90.67;100613.23;88793;273;137656;-76
2023/09/24 02:31:52;;;;;;;9.90;8.70;;;;;;;18.33;91.06;100617.03;89147;280;22537;-77
2023/09/24 02:33:54;;;;;;;11.40;8.10;;;;;;;18.35;90.92;100618.00;88858;280;137383;-78
2023/09/24 02:35:58;;;;;;;12.80;8.70;;;;;;;18.33;91.23;100615.38;89080;276;24049;-77
2023/09/24 02:38:00;;;;;;;11.70;9.40;;;;;;;18.33;91.24;100617.03;88597;280;137944;-76
2023/09/24 02:40:05;;;;;;;15.30;9.60;;;;;;;18.29;91.60;100615.60;88873;272;24085;-78
2023/09/24 02:42:07;;;;;;;8.80;8.00;;;;;;;18.26;91.95;100614.12;88661;276;22525;-76
2023/09/24 02:44:09;;;;;;;9.70;8.50;;;;;;;18.26;91.93;100611.54;88505;276;137045;-78
2023/09/24 02:46:11;;;;;;;9.10;8.30;;;;;;;18.23;92.30;100610.96;88476;274;25546;-77
2023/09/24 02:48:14;;;;;;;16.60;9.10;;;;;;;18.18;92.67;100609.44;88478;276;136605;-75
2023/09/24 02:50:22;;;;;;;9.40;8.50;;;;;;;18.13;92.98;100606.29;88685;272;25331;-77
2023/09/24 02:52:24;;;;;;;15.90;8.80;;;;;;;18.07;93.37;100609.08;88706;272;136662;-76
2023/09/24 02:54:28;;;;;;;9.50;8.70;;;;;;;18.00;94.18;100614.06;88734;279;22534;-80
2023/09/24 02:56:30;;;;;;;9.30;8.10;;;;;;;17.94;94.93;100613.80;88623;276;137484;-72
2023/09/24 02:58:32;;;;;;;9.80;9.00;;;;;;;17.89;95.43;100612.02;88602;280;25088;-75
2023/09/24 03:00:36;;;;;;;12.20;8.80;;;;;;;17.86;95.83;100612.99;88432;280;136512;-76
2023/09/24 03:02:39;;;;;;;;;;;;;;;17.84;95.93;100618.36;88787;280;24137;-79
2023/09/24 03:04:41;;;;;;;11.80;8.70;;;;;;;17.84;96.01;100618.77;88671;280;123217;-78
2023/09/24 03:06:43;;;;;;;9.80;8.80;;;;;;;17.85;96.05;100620.42;88589;281;25232;-76
2023/09/24 03:08:49;;;;;;;9.70;8.20;;;;;;;17.85;95.96;100622.09;88504;281;137129;-78
2023/09/24 03:10:51;;;;;;;10.70;9.40;;;;;;;17.83;95.95;100621.75;88693;280;25213;-77
2023/09/24 03:12:54;;;;;;;10.90;9.70;;;;;;;17.81;96.29;100622.23;88706;281;136627;-78
2023/09/24 03:14:56;;;;;;;13.40;11.80;;;;;;;17.75;96.85;100619.16;89115;276;25225;-75
2023/09/24 03:16:59;;;;;;;12.30;10.30;;;;;;;17.70;97.09;100621.19;89053;272;136681;-78
2023/09/24 03:19:01;;;;;;;14.50;9.60;;;;;;;17.67;97.73;100624.71;88806;272;24495;-76
2023/09/24 03:21:12;;;;;;;15.40;11.30;;;;;;;17.64;98.20;100626.95;88493;272;136832;-79
2023/09/24 03:23:13;;;;;;;12.70;9.80;;;;;;;17.63;98.44;100626.05;88643;276;25210;-79
2023/09/24 03:25:17;;;;;;;10.60;9.20;;;;;;;17.63;98.81;100635.14;88467;281;136881;-78
2023/09/24 03:27:20;;;;;;;17.90;10.30;;;;;;;17.64;98.69;100640.71;88839;281;24069;-76
2023/09/24 03:29:21;;;;;;;12.80;9.60;;;;;;;17.65;98.74;100642.20;88441;274;138138;-74
2023/09/24 03:31:23;;;;;;;9.70;8.80;;;;;;;17.65;99.09;100640.80;88636;281;22897;-73
2023/09/24 03:33:28;;;;;;;11.50;9.30;;;;;;;17.64;99.43;100640.58;88785;272;138275;-76
2023/09/24 03:35:30;;;;;;;;;;;;;;;17.62;99.99;100638.96;88674;282;24185;-74
2023/09/24 03:37:32;;;;;;;11.10;10.00;;;;;;;17.60;100.00;100642.48;88533;281;123853;-74
2023/09/24 03:39:37;;;;;;;10.20;8.60;;;;;;;17.54;100.00;100641.23;88581;275;22620;-76
2023/09/24 03:41:40;;;;;;;16.60;10.20;;;;;;;17.49;100.00;100649.95;88514;279;139725;-76
2023/09/24 03:43:42;;;;;;;12.00;8.80;;;;;;;17.47;100.00;100650.15;88613;281;22704;-78
2023/09/24 03:45:44;;;;;;;12.80;9.90;;;;;;;17.46;100.00;100649.89;88554;281;137158;-79
2023/09/24 03:47:47;;;;;;;9.50;8.60;;;;;;;17.46;100.00;100654.05;88647;276;26282;-77
2023/09/24 03:49:49;;;;;;;13.40;9.60;;;;;;;17.46;100.00;100655.14;88632;276;137205;-76
2023/09/24 03:51:50;;;;;;;12.20;10.70;;;;;;;17.47;100.00;100660.46;88651;278;22574;-77
2023/09/24 03:53:52;;;;;;;10.30;9.30;;;;;;;17.48;100.00;100666.10;88790;280;138737;-77
2023/09/24 03:55:55;;;;;;;11.30;10.20;;;;;;;17.49;100.00;100665.58;88681;273;22947;-78
2023/09/24 03:57:57;;;;;;;11.70;9.30;;;;;;;17.52;100.00;100666.78;88561;278;137559;-74
2023/09/24 03:59:59;;;;;;;11.60;9.30;;;;;;;17.52;100.00;100668.19;88669;276;25160;-74
2023/09/24 04:02:06;;;;;;;10.60;9.60;;;;;;;17.52;100.00;100671.97;88248;280;136634;-75
2023/09/24 04:04:12;;;;;;;14.00;9.60;;;;;;;17.57;100.00;100670.96;88471;274;138372;-72
2023/09/24 04:06:14;;;;;;;13.40;8.50;;;;;;;17.60;100.00;100675.52;88488;278;25630;-74
2023/09/24 04:08:16;;;;;;;13.70;8.70;;;;;;;17.64;100.00;100674.35;88464;273;137756;-75
2023/09/24 04:10:20;;;;;;;14.40;10.50;;;;;;;17.73;100.00;100674.43;88615;272;22527;-75
2023/09/24 04:12:22;;;;;;;11.40;8.60;;;;;;;17.91;100.00;100673.16;88605;272;138331;-74
2023/09/24 04:14:23;;;;;;;12.80;8.60;;;;;;;18.11;99.86;100672.17;88628;276;22607;-75
2023/09/24 04:16:25;;;;;;;12.70;9.50;;;;;;;18.22;99.12;100659.02;88650;276;137445;-75
2023/09/24 04:18:27;;;;;;;12.00;9.80;;;;;;;18.51;97.84;100673.45;88661;280;23663;-75
2023/09/24 04:20:33;;;;;;;10.20;9.10;;;;;;;18.79;96.55;100674.63;88461;279;137005;-75
2023/09/24 04:22:35;;;;;;;11.90;8.90;;;;;;;19.07;94.82;100680.63;88989;276;22619;-78
2023/09/24 04:24:38;;;;;;;12.50;9.80;;;;;;;19.28;92.57;100682.68;88506;276;136286;-75
2023/09/24 04:26:40;;;;;;;16.90;9.50;;;;;;;19.45;91.41;100688.13;88533;276;22530;-74
2023/09/24 04:28:41;;;;;;;11.60;9.70;;;;;;;19.67;89.68;100690.96;88519;276;136513;-76
2023/09/24 04:30:43;;;;;;;10.20;8.60;;;;;;;19.89;87.61;100690.38;88424;272;22541;-78
2023/09/24 04:32:51;;;;;;;13.40;10.20;;;;;;;20.05;86.30;100691.98;88346;280;139739;-80
2023/09/24 04:34:55;;;;;;;10.60;9.50;;;;;;;20.26;85.07;100697.60;89247;277;22557;-77
2023/09/24 04:36:57;;;;;;;11.90;10.40;;;;;;;20.45;83.72;100702.37;89295;272;136459;-77
2023/09/24 04:38:59;;;;;;;13.20;9.70;;;;;;;20.72;82.26;100707.96;89168;277;23517;-76
2023/09/24 04:41:00;;;;;;;9.90;8.70;;;;;;;20.98;80.10;100709.95;88989;272;137652;-75
2023/09/24 04:43:02;;;;;;;12.40;8.50;;;;;;;21.23;79.03;100712.64;89140;276;26288;-78
2023/09/24 04:45:06;;;;;;;16.60;9.60;;;;;;;21.51;77.80;100712.69;88619;281;136890;-74
2023/09/24 04:47:08;;;;;;;13.90;10.10;;;;;;;21.79;75.86;100708.16;88965;276;22527;-75
2023/09/24 04:49:10;;;;;;;11.50;8.90;;;;;;;22.07;74.59;100710.13;89005;273;136251;-76
2023/09/24 04:51:12;;;;;;;11.30;8.40;;;;;;;22.29;73.26;100711.84;89137;276;25057;-75
2023/09/24 04:53:14;;;;;;;12.50;9.20;;;;;;;22.55;72.12;100714.13;88449;279;136201;-74
2023/09/24 04:55:17;;;;;;;11.50;9.20;;;;;;;22.77;70.33;100716.59;88758;276;22527;-76
2023/09/24 04:57:19;;;;;;;10.00;8.80;;;;;;;22.98;68.64;100719.34;88228;273;136924;-77
2023/09/24 04:59:20;;;;;;;14.90;8.30;;;;;;;23.04;68.11;100723.33;88465;280;22525;-75
2023/09/24 05:01:22;;;;;;;14.50;8.60;;;;;;;23.14;67.77;100727.63;88964;280;137131;-74
2023/09/24 05:03:24;;;;;;;13.60;8.60;;;;;;;23.28;67.22;100731.90;88522;280;22523;-76
2023/09/24 05:05:26;;;;;;;7.80;7.20;;;;;;;23.50;66.57;100732.55;88828;277;138215;-75
2023/09/24 05:07:28;;;;;;;9.30;8.30;;;;;;;23.78;64.79;100735.73;89005;272;22667;-77
2023/09/24 05:09:30;;;;;;;13.30;8.00;;;;;;;24.08;63.88;100738.17;88834;274;137444;-75
2023/09/24 05:11:32;;;;;;;9.50;8.20;;;;;;;24.35;63.01;100743.35;88393;280;22596;-76
2023/09/24 05:13:35;;;;;;;13.90;8.00;;;;;;;24.63;61.20;100747.86;88545;272;136189;-75
2023/09/24 05:15:36;;;;;;;8.80;8.00;;;;;;;24.82;59.74;100750.64;88414;278;22548;-76
2023/09/24 05:17:39;;;;;;;12.30;7.90;;;;;;;24.93;59.33;100755.27;88385;273;136548;-75
2023/09/24 05:19:41;;;;;;;11.10;7.10;;;;;;;25.02;59.07;100755.91;88978;273;25320;-75
2023/09/24 05:21:44;;;;;;;14.20;7.80;;;;;;;25.13;58.00;100756.55;88810;273;137439;-76
2023/09/24 05:23:46;;;;;;;11.80;8.40;;;;;;;25.20;58.03;100755.02;90016;272;21948;-75
2023/09/24 05:25:50;;;;;;;12.00;7.90;;;;;;;25.29;56.94;100752.23;88921;277;137762;-75
2023/09/24 05:27:53;;;;;;;8.90;7.40;;;;;;;25.31;57.00;100753.88;89084;273;22595;-75
2023/09/24 05:29:55;;;;;;;12.80;8.30;;;;;;;25.37;57.12;100755.05;88982;274;136828;-77
2023/09/24 05:31:57;;;;;;;10.00;7.50;;;;;;;25.59;56.48;100757.10;88905;275;22530;-75
2023/09/24 05:33:58;;;;;;;8.50;7.40;;;;;;;25.80;55.65;100758.44;88986;278;135985;-74
2023/09/24 05:36:01;;;;;;;8.00;7.30;;;;;;;25.94;55.35;100754.36;89082;280;22661;-74
2023/09/24 05:38:03;;;;;;;9.70;7.70;;;;;;;26.11;54.56;100750.55;88513;277;135831;-74
2023/09/24 05:40:05;;;;;;;12.80;8.10;;;;;;;26.13;53.45;100746.01;88924;273;136598;-74
2023/09/24 05:42:07;;;;;;;13.90;8.40;;;;;;;25.90;53.63;100743.54;89119;273;22698;-74
2023/09/24 05:44:09;;;;;;;7.90;6.80;;;;;;;25.57;54.68;100741.40;89816;276;136546;-72
2023/09/24 05:46:11;;;;;;;14.40;7.00;;;;;;;25.38;55.42;100740.03;90327;281;23219;-73
2023/09/24 05:48:15;;;;;;;8.70;6.60;;;;;;;25.38;55.66;100740.70;89878;282;137624;-74
2023/09/24 05:50:17;;;;;;;9.30;7.20;;;;;;;25.49;55.21;100744.65;90112;280;25076;-75
2023/09/24 05:52:19;;;;;;;12.00;6.40;;;;;;;25.52;54.25;100746.11;89837;280;135915;-72
2023/09/24 05:54:21;;;;;;;18.50;8.50;;;;;;;25.44;54.15;100749.40;89362;274;22475;-73
2023/09/24 05:56:24;;;;;;;8.60;6.80;;;;;;;25.30;54.33;100751.69;89810;280;137175;-76
2023/09/24 05:58:26;;;;;;;12.50;8.30;;;;;;;25.18;54.84;100751.46;89392;282;22902;-77
2023/09/24 06:00:28;;;;;;;14.20;7.40;;;;;;;25.15;54.96;100751.64;89594;273;137470;-72
2023/09/24 06:02:30;;;;;;;11.20;7.60;;;;;;;25.17;54.87;100751.19;89171;277;22544;-73
2023/09/24 06:04:32;;;;;;;12.50;7.90;;;;;;;25.28;54.89;100751.31;89354;280;136137;-74
2023/09/24 06:06:34;;;;;;;8.90;7.40;;;;;;;25.53;54.21;100749.15;89521;276;22544;-75
2023/09/24 06:08:37;;;;;;;11.30;7.20;;;;;;;25.81;53.09;100748.55;88945;273;135764;-74
2023/09/24 06:10:46;;;;;;;13.70;7.70;;;;;;;26.13;51.98;100747.43;89189;276;24096;-74
2023/09/24 06:12:47;;;;;;;9.90;6.80;;;;;;;26.47;50.65;100750.91;88521;280;136371;-74
2023/09/24 06:14:50;;;;;;;7.70;6.90;;;;;;;26.66;49.96;100748.82;89260;272;22536;-73
2023/09/24 06:16:52;;;;;;;8.50;6.80;;;;;;;26.80;49.73;100757.99;88450;277;136396;-72
2023/09/24 06:18:54;;;;;;;11.40;6.40;;;;;;;26.91;49.01;100754.73;89046;273;22524;-74
2023/09/24 06:20:57;;;;;;;8.00;6.70;;;;;;;27.01;48.85;100751.41;88988;273;136458;-75
2023/09/24 06:22:58;;;;;;;10.90;5.70;;;;;;;27.29;47.71;100753.92;89005;273;22538;-77
2023/09/24 06:25:00;;;;;;;8.40;7.30;;;;;;;27.49;47.38;100758.09;88875;281;135837;-77
2023/09/24 06:27:04;;;;;;;14.00;7.40;;;;;;;27.68;46.93;100759.77;89014;278;22594;-76
2023/09/24 06:29:06;;;;;;;8.30;7.00;;;;;;;27.68;46.69;100761.86;88676;279;137538;-73
2023/09/24 06:31:12;;;;;;;10.10;6.60;;;;;;;27.36;46.95;100762.52;89017;280;22533;-74
2023/09/24 06:33:14;;;;;;;8.10;6.90;;;;;;;26.94;47.49;100759.18;88844;276;136354;-74
2023/09/24 06:35:16;;;;;;;7.60;6.20;;;;;;;26.47;48.16;100760.86;89110;280;25121;-75
2023/09/24 06:37:17;;;;;;;12.90;6.70;;;;;;;25.90;48.81;100756.98;88342;272;137278;-76
2023/09/24 06:39:19;;;;;;;9.40;6.10;;;;;;;25.31;50.26;100758.38;89055;280;22608;-77
2023/09/24 06:41:22;;;;;;;10.70;7.10;;;;;;;24.81;51.43;100758.11;88833;272;136274;-76
2023/09/24 06:43:25;;;;;;;8.10;6.30;;;;;;;24.43;52.78;100753.72;89095;275;24018;-76
2023/09/24 06:45:27;;;;;;;9.70;6.40;;;;;;;24.18;54.00;100755.84;88840;272;136836;-76
2023/09/24 06:47:29;;;;;;;9.60;6.90;;;;;;;23.96;55.20;100764.34;88347;273;26202;-76
2023/09/24 06:49:31;;;;;;;10.60;6.60;;;;;;;23.71;56.12;100753.83;88894;274;137103;-75
2023/09/24 06:51:32;;;;;;;13.40;7.40;;;;;;;23.59;56.46;100761.95;89057;278;22587;-76
2023/09/24 06:53:37;;;;;;;12.50;6.60;;;;;;;23.45;57.09;100760.98;89073;272;136356;-74
2023/09/24 06:55:39;;;;;;;10.00;6.50;;;;;;;23.30;57.89;100758.84;89295;272;22517;-73
2023/09/24 06:57:41;;;;;;;16.80;6.70;;;;;;;23.13;57.90;100765.20;88981;277;136269;-78
2023/09/24 06:59:43;;;;;;;7.70;7.00;;;;;;;22.97;58.31;100763.05;89094;272;22552;-76
2023/09/24 07:01:45;;;;;;;7.90;6.60;;;;;;;22.81;59.05;100762.01;88474;276;138114;-77
2023/09/24 07:03:48;;;;;;;11.50;6.30;;;;;;;22.71;59.43;100762.79;88777;278;22528;-76
2023/09/24 07:05:52;;;;;;;7.60;6.40;;;;;;;22.64;59.78;100766.38;89522;280;136036;-74
2023/09/24 07:07:53;;;;;;;10.50;6.90;;;;;;;22.58;59.91;100771.86;89132;276;22530;-75
2023/09/24 07:09:55;;;;;;;10.20;5.80;;;;;;;22.52;60.40;100767.95;89068;276;135974;-75
2023/09/24 07:11:57;;;;;;;7.60;6.50;;;;;;;22.47;60.74;100758.77;89071;273;24099;-76
2023/09/24 07:14:00;;;;;;;11.60;5.60;;;;;;;22.59;60.69;100768.17;89025;272;136926;-74
2023/09/24 07:16:05;;;;;;;14.30;7.20;;;;;;;22.64;60.97;100771.48;89230;273;137849;-74
2023/09/24 07:18:08;;;;;;;13.60;7.40;;;;;;;22.67;61.38;100777.72;89066;281;25296;-75
2023/09/24 07:20:11;;;;;;;8.40;5.90;;;;;;;22.70;60.89;100776.48;88324;272;136468;-75
2023/09/24 07:22:14;;;;;;;15.60;7.40;;;;;;;22.77;60.95;100775.61;89068;272;24243;-75
2023/09/24 07:24:15;;;;;;;11.10;6.40;;;;;;;22.84;60.76;100777.67;88851;276;138507;-75
2023/09/24 07:26:19;;;;;;;7.10;6.50;;;;;;;22.88;60.26;100771.30;89052;281;25168;-75
2023/09/24 07:28:24;;;;;;;9.90;6.60;;;;;;;22.89;60.19;100767.67;88942;272;136427;-74
2023/09/24 07:30:26;;;;;;;9.60;6.60;;;;;;;22.89;60.92;100763.92;89042;273;24227;-72
2023/09/24 07:32:29;;;;;;;8.10;6.90;;;;;;;22.95;60.33;100765.52;88270;280;136971;-76
2023/09/24 07:34:31;;;;;;;11.90;6.20;;;;;;;22.99;60.01;100772.75;89534;273;25080;-70
2023/09/24 07:36:33;;;;;;;10.10;6.30;;;;;;;23.03;59.62;100774.27;88420;273;136503;-73
2023/09/24 07:38:53;;;;;;;7.00;6.30;;;;;;;23.06;59.90;100776.63;88360;273;22571;-74
2023/09/24 07:40:57;;;;;;;8.00;7.20;;;;;;;23.08;59.93;100779.85;88271;280;136730;-77
2023/09/24 07:42:59;;;;;;;7.30;6.10;;;;;;;23.12;59.32;100775.38;89130;273;22554;-74
2023/09/24 07:45:00;;;;;;;11.80;5.80;;;;;;;23.16;59.45;100773.44;88423;276;137620;-74
2023/09/24 07:47:03;;;;;;;18.20;7.00;;;;;;;23.20;59.65;100778.73;88427;276;22520;-72
2023/09/24 07:49:05;;;;;;;9.20;6.60;;;;;;;23.25;59.11;100778.77;88317;276;137658;-73
2023/09/24 07:51:09;;;;;;;8.10;6.40;;;;;;;23.32;58.68;100773.54;88408;276;22454;-71
2023/09/24 07:53:11;;;;;;;12.10;5.70;;;;;;;23.37;58.28;100770.80;89891;276;138173;-74
2023/09/24 07:55:13;;;;;;;8.30;5.30;;;;;;;23.43;58.28;100755.75;88442;280;25338;-75
2023/09/24 07:57:15;;;;;;;8.00;4.90;;;;;;;23.42;57.57;100742.10;88333;277;136233;-72
2023/09/24 07:59:17;;;;;;;6.80;5.50;;;;;;;23.61;57.67;100754.15;88383;273;22879;-73
2023/09/24 08:01:22;;;;;;;9.20;5.40;;;;;;;23.64;56.83;100747.92;88314;273;137530;-74
2023/09/24 08:03:24;;;;;;;9.80;5.30;;;;;;;23.67;57.00;100750.05;88570;278;22527;-72
2023/09/24 08:05:26;;;;;;;13.10;7.40;;;;;;;23.69;57.05;100754.14;89480;280;135948;-71
2023/09/24 08:07:30;;;;;;;19.10;7.00;;;;;;;23.73;56.81;100754.75;88433;272;22546;-72
2023/09/24 08:09:31;;;;;;;23.70;7.40;;;;;;;23.78;56.80;100752.55;88366;272;136469;-72
2023/09/24 08:11:33;;;;;;;19.60;7.00;;;;;;;23.87;56.85;100756.09;88327;280;25154;-73
2023/09/24 08:13:35;;;;;;;12.50;6.20;;;;;;;23.98;56.30;100756.98;88154;280;136198;-73
2023/09/24 08:15:37;;;;;;;15.80;6.30;;;;;;;24.01;56.28;100760.93;88240;272;22531;-69
2023/09/24 08:17:39;;;;;;;19.40;7.10;;;;;;;24.05;56.18;100760.67;88254;276;136933;-73
2023/09/24 08:19:41;;;;;;;12.70;6.20;;;;;;;24.10;56.20;100759.81;88419;272;23481;-70
2023/09/24 08:21:43;;;;;;;9.50;5.80;;;;;;;24.20;56.05;100762.02;88306;276;136488;-72
2023/09/24 08:23:45;;;;;;;21.20;8.20;;;;;;;24.31;55.45;100763.34;88531;279;25079;-74
2023/09/24 08:25:51;;;;;;;16.60;6.80;;;;;;;24.37;55.09;100757.36;88419;276;136683;-73
2023/09/24 08:27:53;;;;;;;18.00;6.30;;;;;;;24.44;55.08;100751.04;88656;272;22547;-74
2023/09/24 08:29:55;;;;;;;13.00;5.60;;;;;;;24.54;54.94;100749.49;88512;272;136541;-74
2023/09/24 08:31:57;;;;;;;9.80;5.10;;;;;;;24.62;54.48;100747.33;88900;273;22585;-75
2023/09/24 08:33:59;;;;;;;5.90;4.40;;;;;;;24.61;54.32;100729.65;88284;272;136187;-73
2023/09/24 08:36:07;;;;;;;8.50;4.60;;;;;;;24.70;53.95;100741.97;88481;276;24019;-72
2023/09/24 08:38:09;;;;;;;8.50;4.70;;;;;;;24.73;54.09;100747.38;88626;280;22535;-72
2023/09/24 08:40:12;;;;;;;7.80;4.00;;;;;;;24.74;54.12;100746.01;88437;279;136549;-74
2023/09/24 08:42:18;;;;;;;8.00;4.00;;;;;;;24.77;54.40;100746.83;89229;279;24099;-72
2023/09/24 08:44:23;;;;;;;6.90;3.70;;;;;;;24.84;54.22;100751.30;88402;280;136188;-73
2023/09/24 08:46:26;;;;;;;7.40;4.20;;;;;;;24.93;53.73;100748.02;88937;272;25079;-73
2023/09/24 08:48:29;;;;;;;9.50;4.50;;;;;;;24.94;53.85;100738.04;88856;280;136231;-72
2023/09/24 08:50:31;;;;;;;6.50;4.20;;;;;;;25.12;53.92;100750.72;88686;272;22530;-73
2023/09/24 08:52:36;;;;;;;11.30;6.10;;;;;;;25.21;53.70;100743.73;88604;279;136629;-71
2023/09/24 08:54:38;;;;;;;9.60;4.20;;;;;;;25.30;53.69;100746.01;88983;280;25303;-74
2023/09/24 08:56:40;;;;;;;7.40;4.20;;;;;;;25.38;53.49;100747.52;89509;276;137336;-73
2023/09/24 08:58:43;;;;;;;8.50;4.30;;;;;;;25.46;53.35;100745.69;89717;279;24014;-73
2023/09/24 09:00:45;;;;;;;8.90;4.50;;;;;;;25.55;53.21;100748.71;89643;279;136303;-71
2023/09/24 09:02:48;;;;;;;4.90;4.50;;;;;;;25.64;53.16;100747.20;88931;278;23897;-73
2023/09/24 09:04:51;;;;;;;10.10;4.10;;;;;;;25.69;52.90;100749.10;88502;276;136866;-73
2023/09/24 09:06:55;;;;;;;6.10;4.80;;;;;;;25.71;53.10;100745.87;88443;273;24057;-74
2023/09/24 09:08:57;;;;;;;12.40;4.60;;;;;;;25.77;53.07;100747.20;88557;280;137551;-72
2023/09/24 09:11:02;;;;;;;5.90;4.60;;;;;;;25.83;52.86;100750.73;88027;274;458801;-72
2023/09/24 09:13:09;;;;;;;8.80;5.20;;;;;;;25.87;52.86;100750.05;88579;272;137230;-72
2023/09/24 09:15:17;;;;;;;8.10;4.60;;;;;;;25.89;52.70;100751.96;88972;272;22520;-74
2023/09/24 09:17:19;;;;;;;8.20;4.30;;;;;;;25.87;52.92;100750.44;88534;272;137463;-73
2023/09/24 09:19:21;;;;;;;8.20;4.50;;;;;;;25.91;52.83;100746.16;88545;272;22599;-72
2023/09/24 09:21:27;;;;;;;11.90;4.40;;;;;;;25.95;52.83;100749.27;88931;272;135996;-72
2023/09/24 09:23:34;;;;;;;8.20;4.70;;;;;;;26.04;52.63;100750.55;89075;279;22534;-75
2023/09/24 09:25:46;;;;;;;7.60;4.80;;;;;;;26.09;52.38;100758.11;88498;280;136500;-73
2023/09/24 09:27:50;;;;;;;7.20;4.20;;;;;;;26.10;52.19;100756.14;88602;276;22919;-74
2023/09/24 09:29:52;;;;;;;8.30;4.50;;;;;;;26.07;52.62;100752.38;89118;277;137252;-72
2023/09/24 09:31:56;;;;;;;8.00;5.40;;;;;;;26.08;52.77;100754.23;88592;272;22739;-75
2023/09/24 09:34:06;;;;;;;9.30;4.60;;;;;;;26.09;52.44;100742.90;88910;279;135758;-74